createdAt,value
2018-03-26T00:01:39.628Z,94.90
2018-03-26T00:06:13.639Z,95.30
2018-03-26T00:10:46.919Z,95.30
2018-03-26T00:15:21.092Z,95.10
2018-03-26T00:19:55.312Z,95.30
2018-03-26T00:24:30.011Z,95.70
2018-03-26T00:29:03.473Z,95.50
2018-03-26T00:33:37.488Z,95.70
2018-03-26T00:38:11.070Z,95.60
2018-03-26T00:42:44.632Z,96.00
2018-03-26T00:47:18.648Z,95.80
2018-03-26T00:51:52.716Z,95.70
2018-03-26T00:56:26.018Z,95.70
2018-03-26T01:01:00.062Z,95.80
2018-03-26T01:05:33.356Z,96.10
2018-03-26T01:10:06.598Z,96.40
2018-03-26T01:14:40.189Z,96.60
2018-03-26T01:19:13.458Z,96.70
2018-03-26T01:23:47.706Z,96.50
2018-03-26T01:28:21.103Z,96.50
2018-03-26T01:32:55.642Z,96.60
2018-03-26T01:37:29.633Z,96.20
2018-03-26T01:42:02.892Z,96.20
2018-03-26T01:46:36.120Z,96.80
2018-03-26T01:51:09.523Z,96.70
2018-03-26T01:55:42.790Z,97.10
2018-03-26T02:00:17.032Z,97.20
2018-03-26T02:04:51.058Z,96.40
2018-03-26T02:09:25.343Z,96.60
2018-03-26T02:13:58.734Z,96.50
2018-03-26T02:18:32.020Z,96.30
2018-03-26T02:23:05.312Z,96.60
2018-03-26T02:27:39.886Z,96.20
2018-03-26T02:32:13.881Z,96.20
2018-03-26T02:36:47.944Z,96.10
2018-03-26T02:41:21.432Z,96.10
2018-03-26T02:45:54.834Z,95.70
2018-03-26T02:50:28.838Z,96.20
2018-03-26T02:55:02.399Z,96.20
2018-03-26T02:59:35.785Z,96.20
2018-03-26T03:04:09.828Z,96.20
2018-03-26T03:08:43.149Z,96.20
2018-03-26T03:13:16.755Z,96.30
2018-03-26T03:17:49.991Z,96.40
2018-03-26T03:22:23.443Z,96.60
2018-03-26T03:26:56.765Z,96.40
2018-03-26T03:31:31.375Z,96.10
2018-03-26T03:36:04.950Z,96.10
2018-03-26T03:40:38.222Z,95.90
2018-03-26T03:45:12.816Z,96.40
2018-03-26T03:49:46.086Z,96.30
2018-03-26T03:54:19.527Z,96.50
2018-03-26T03:58:52.900Z,96.90
2018-03-26T04:03:26.897Z,97.00
2018-03-26T04:08:00.974Z,96.90
2018-03-26T04:12:34.210Z,96.90
2018-03-26T04:17:07.600Z,96.90
2018-03-26T04:21:40.863Z,97.00
2018-03-26T04:26:14.229Z,97.20
2018-03-26T04:30:47.702Z,97.30
2018-03-26T04:35:21.765Z,97.10
2018-03-26T04:39:55.139Z,97.10
2018-03-26T04:44:29.406Z,97.40
2018-03-26T04:49:02.674Z,97.40
2018-03-26T04:53:37.041Z,97.30
2018-03-26T04:58:10.428Z,97.30
2018-03-26T05:02:44.478Z,97.20
2018-03-26T05:07:17.858Z,97.20
2018-03-26T05:11:51.886Z,97.50
2018-03-26T05:16:25.929Z,97.50
2018-03-26T05:20:59.179Z,97.50
2018-03-26T05:25:32.436Z,97.30
2018-03-26T05:30:06.577Z,97.00
2018-03-26T05:34:40.439Z,97.00
2018-03-26T05:39:13.705Z,97.00
2018-03-26T05:43:46.979Z,97.10
2018-03-26T05:48:20.330Z,97.30
2018-03-26T05:52:53.594Z,97.20
2018-03-26T05:57:27.026Z,97.00
2018-03-26T06:02:01.076Z,97.20
2018-03-26T06:06:34.917Z,97.20
2018-03-26T06:11:08.245Z,97.40
2018-03-26T06:15:41.506Z,97.40
2018-03-26T06:20:14.799Z,97.10
2018-03-26T06:24:49.647Z,97.30
2018-03-26T06:29:24.354Z,97.30
2018-03-26T06:33:57.610Z,97.30
2018-03-26T06:38:37.683Z,97.30
2018-03-26T06:43:11.686Z,97.10
2018-03-26T06:47:45.736Z,97.20
2018-03-26T06:52:19.057Z,97.20
2018-03-26T06:56:52.433Z,97.30
2018-03-26T07:01:26.482Z,97.30
2018-03-26T07:05:59.719Z,97.30
2018-03-26T07:10:33.191Z,97.00
2018-03-26T07:15:06.520Z,96.90
2018-03-26T07:19:40.557Z,96.80
2018-03-26T07:24:13.867Z,96.30
2018-03-26T07:28:47.723Z,96.50
2018-03-26T07:33:21.719Z,96.80
2018-03-26T07:37:55.317Z,96.50
2018-03-26T07:42:28.620Z,96.40
2018-03-26T07:47:01.941Z,96.40
2018-03-26T07:51:35.171Z,96.10
2018-03-26T07:56:09.374Z,96.00
2018-03-26T08:00:42.787Z,96.10
2018-03-26T08:05:16.044Z,96.30
2018-03-26T08:09:49.392Z,95.80
2018-03-26T08:14:22.885Z,96.10
2018-03-26T08:18:57.044Z,95.40
2018-03-26T08:23:30.306Z,95.40
2018-03-26T08:28:03.565Z,95.30
2018-03-26T08:32:36.944Z,95.30
2018-03-26T08:37:10.937Z,94.80
2018-03-26T08:41:44.380Z,94.80
2018-03-26T08:46:18.411Z,94.50
2018-03-26T08:50:53.074Z,94.10
2018-03-26T08:55:26.354Z,94.10
2018-03-26T09:00:00.412Z,93.20
2018-03-26T09:04:33.718Z,93.20
2018-03-26T09:09:07.282Z,92.80
2018-03-26T09:13:40.717Z,91.90
2018-03-26T09:18:14.713Z,90.70
2018-03-26T09:22:47.997Z,90.70
2018-03-26T09:27:21.417Z,90.00
2018-03-26T09:31:54.798Z,87.70
2018-03-26T09:36:28.105Z,86.30
2018-03-26T09:41:01.378Z,84.50
2018-03-26T09:45:35.443Z,78.60
2018-03-26T09:50:09.064Z,78.50
2018-03-26T09:54:42.445Z,76.60
2018-03-26T09:59:17.301Z,70.10
2018-03-26T10:03:50.538Z,69.30
2018-03-26T10:08:23.910Z,68.30
2018-03-26T10:12:57.913Z,64.00
2018-03-26T10:17:31.282Z,64.00
2018-03-26T10:22:05.332Z,62.20
2018-03-26T10:26:39.425Z,58.20
2018-03-26T10:31:13.721Z,58.10
2018-03-26T10:35:47.714Z,53.10
2018-03-26T10:40:20.956Z,52.10
2018-03-26T10:44:55.010Z,50.90
2018-03-26T10:49:28.288Z,50.80
2018-03-26T10:54:02.427Z,48.90
2018-03-26T10:58:36.851Z,45.10
2018-03-26T11:03:11.014Z,46.20
2018-03-26T11:07:44.305Z,46.10
2018-03-26T11:12:17.592Z,39.50
2018-03-26T11:16:51.048Z,39.00
2018-03-26T11:21:25.028Z,40.20
2018-03-26T11:25:59.033Z,41.00
2018-03-26T11:30:32.380Z,41.00
2018-03-26T11:35:06.744Z,44.30
2018-03-26T11:39:40.330Z,44.20
2018-03-26T11:44:14.839Z,48.90
2018-03-26T11:48:48.092Z,48.80
2018-03-26T11:53:21.418Z,50.20
2018-03-26T11:57:54.695Z,51.50
2018-03-26T12:02:29.775Z,47.90
2018-03-26T12:07:03.031Z,47.80
2018-03-26T12:11:37.092Z,39.60
2018-03-26T12:16:10.431Z,38.90
2018-03-26T12:20:56.469Z,40.20
2018-03-26T12:25:29.833Z,39.20
2018-03-26T12:30:13.868Z,41.20
2018-03-26T12:34:59.807Z,52.40
2018-03-26T12:39:33.304Z,52.30
2018-03-26T12:44:06.723Z,49.20
2018-03-26T12:48:40.014Z,50.30
2018-03-26T12:53:13.522Z,47.90
2018-03-26T12:57:59.104Z,48.80
2018-03-26T13:02:33.244Z,48.70
2018-03-26T13:07:07.685Z,48.50
2018-03-26T13:11:42.108Z,48.30
2018-03-26T13:16:16.171Z,50.90
2018-03-26T13:20:49.558Z,50.90
2018-03-26T13:25:23.788Z,47.30
2018-03-26T13:29:57.854Z,45.70
2018-03-26T13:34:31.256Z,45.70
2018-03-26T13:39:04.730Z,48.30
2018-03-26T13:43:38.966Z,48.40
2018-03-26T13:48:12.384Z,48.40
2018-03-26T13:52:45.661Z,49.20
2018-03-26T13:57:19.141Z,50.60
2018-03-26T14:01:52.434Z,51.50
2018-03-26T14:06:25.871Z,51.80
2018-03-26T14:11:10.990Z,53.50
2018-03-26T14:15:56.917Z,51.40
2018-03-26T14:20:31.140Z,49.30
2018-03-26T14:25:05.269Z,49.80
2018-03-26T14:29:39.451Z,48.60
2018-03-26T14:34:13.040Z,48.50
2018-03-26T14:38:46.987Z,50.40
2018-03-26T14:43:20.962Z,50.30
2018-03-26T14:47:55.092Z,50.00
2018-03-26T14:52:29.473Z,49.90
2018-03-26T14:57:02.714Z,48.10
2018-03-26T15:01:35.998Z,51.50
2018-03-26T15:06:09.231Z,55.10
2018-03-26T15:10:42.672Z,54.10
2018-03-26T15:15:16.075Z,53.80
2018-03-26T15:19:50.093Z,54.90
2018-03-26T15:24:24.135Z,56.10
2018-03-26T15:28:57.537Z,56.00
2018-03-26T15:33:31.572Z,56.60
2018-03-26T15:38:04.847Z,56.50
2018-03-26T15:42:38.122Z,56.30
2018-03-26T15:47:11.389Z,56.00
2018-03-26T15:51:45.524Z,55.80
2018-03-26T15:56:18.806Z,55.70
2018-03-26T16:00:52.079Z,55.90
2018-03-26T16:05:25.338Z,57.80
2018-03-26T16:09:58.642Z,57.40
2018-03-26T16:14:32.820Z,56.00
2018-03-26T16:19:06.051Z,56.00
2018-03-26T16:23:39.499Z,55.90
2018-03-26T16:28:13.557Z,53.40
2018-03-26T16:32:46.937Z,53.30
2018-03-26T16:37:20.986Z,52.70
2018-03-26T16:41:54.301Z,52.70
2018-03-26T16:46:27.534Z,53.40
2018-03-26T16:51:00.818Z,53.20
2018-03-26T16:55:34.838Z,59.50
2018-03-26T17:00:08.122Z,69.40
2018-03-26T17:04:42.216Z,75.40
2018-03-26T17:09:15.661Z,75.40
2018-03-26T17:13:48.899Z,76.80
2018-03-26T17:18:22.173Z,77.70
2018-03-26T17:22:56.468Z,79.20
2018-03-26T17:27:29.733Z,79.20
2018-03-26T17:32:03.245Z,80.60
2018-03-26T17:36:36.645Z,81.20
2018-03-26T17:41:10.682Z,83.00
2018-03-26T17:45:43.971Z,82.90
2018-03-26T17:50:17.306Z,83.60
2018-03-26T17:54:50.693Z,83.50
2018-03-26T17:59:24.745Z,85.60
2018-03-26T18:03:58.053Z,85.50
2018-03-26T18:08:31.361Z,86.30
2018-03-26T18:13:04.633Z,86.60
2018-03-26T18:17:39.362Z,83.80
2018-03-26T18:22:12.740Z,82.90
2018-03-26T18:26:46.006Z,81.60
2018-03-26T18:31:20.174Z,77.60
2018-03-26T18:35:53.478Z,77.50
2018-03-26T18:40:26.964Z,71.60
2018-03-26T18:45:00.973Z,77.80
2018-03-26T18:49:34.239Z,77.80
2018-03-26T18:54:08.237Z,66.40
2018-03-26T18:58:41.558Z,61.60
2018-03-26T19:03:14.830Z,62.20
2018-03-26T19:07:48.965Z,63.10
2018-03-26T19:12:23.024Z,65.10
2018-03-26T19:16:56.292Z,65.10
2018-03-26T19:21:31.046Z,69.50
2018-03-26T19:26:05.069Z,74.90
2018-03-26T19:30:39.203Z,74.00
2018-03-26T19:35:13.194Z,76.20
2018-03-26T19:39:46.499Z,76.10
2018-03-26T19:44:19.742Z,77.10
2018-03-26T19:48:53.765Z,79.90
2018-03-26T19:53:27.786Z,81.50
2018-03-26T20:08:00.704Z,83.20
2018-03-26T20:12:34.034Z,81.80
2018-03-26T20:17:07.547Z,84.80
2018-03-26T20:21:41.992Z,87.10
2018-03-26T20:26:15.668Z,87.50
2018-03-26T20:30:49.827Z,89.00
2018-03-26T20:35:23.142Z,89.10
2018-03-26T20:39:56.407Z,89.80
2018-03-26T20:44:31.079Z,90.30
2018-03-26T20:49:04.468Z,90.30
2018-03-26T20:53:38.516Z,90.40
2018-03-26T20:58:11.782Z,90.30
2018-03-26T21:02:45.821Z,90.40
2018-03-26T21:07:19.957Z,90.60
2018-03-26T21:11:54.083Z,91.00
2018-03-26T21:16:28.438Z,91.10
2018-03-26T21:21:01.722Z,91.10
2018-03-26T21:25:35.862Z,91.40
2018-03-26T21:30:10.007Z,91.80
2018-03-26T21:34:43.466Z,91.70
2018-03-26T21:39:17.774Z,91.90
2018-03-26T21:43:51.045Z,91.30
2018-03-26T21:48:25.778Z,91.70
2018-03-26T21:52:59.908Z,92.30
2018-03-26T21:57:33.957Z,92.40
2018-03-26T22:02:07.367Z,92.40
2018-03-26T22:06:40.653Z,92.30
2018-03-26T22:11:14.841Z,92.10
2018-03-26T22:15:48.055Z,92.10
2018-03-26T22:20:21.320Z,92.30
2018-03-26T22:24:54.636Z,92.50
2018-03-26T22:29:27.894Z,92.40
2018-03-26T22:34:01.964Z,92.20
2018-03-26T22:38:35.246Z,92.20
2018-03-26T22:43:09.379Z,93.00
2018-03-26T22:47:43.505Z,92.90
2018-03-26T22:52:17.668Z,93.10
2018-03-26T22:56:51.151Z,93.10
2018-03-26T23:01:25.390Z,92.80
2018-03-26T23:05:58.650Z,92.80
2018-03-26T23:10:32.123Z,92.90
2018-03-26T23:15:05.881Z,92.70
2018-03-26T23:19:39.187Z,92.70
2018-03-26T23:24:13.179Z,92.50
2018-03-26T23:28:47.158Z,92.70
2018-03-26T23:33:20.586Z,93.60
2018-03-26T23:37:54.837Z,93.20
2018-03-26T23:42:28.427Z,93.20
2018-03-26T23:47:01.707Z,93.30
2018-03-26T23:51:34.956Z,93.60
2018-03-26T23:56:09.187Z,93.70
